createdAt,value
2022-10-30T00:00:00.359Z,985.6
2022-10-30T00:05:00.355Z,985.8
2022-10-30T00:10:00.357Z,985.8
2022-10-30T00:15:00.369Z,985.8
2022-10-30T00:20:00.371Z,985.8
2022-10-30T00:25:00.377Z,985.8
2022-10-30T00:30:00.377Z,985.8
2022-10-30T00:35:00.383Z,985.8
2022-10-30T00:40:00.395Z,986
2022-10-30T00:45:00.390Z,986
2022-10-30T00:50:00.393Z,986
2022-10-30T00:55:00.402Z,985.8
2022-10-30T01:00:00.405Z,985.8
2022-10-30T01:05:00.473Z,985.8
2022-10-30T01:10:00.416Z,985.8
2022-10-30T01:15:00.421Z,985.8
2022-10-30T01:20:03.430Z,986
2022-10-30T01:25:00.426Z,986.2
2022-10-30T01:30:00.432Z,985.8
2022-10-30T01:35:00.439Z,985.8
2022-10-30T01:40:00.451Z,985.8
2022-10-30T01:45:00.456Z,985.6
2022-10-30T01:50:00.317Z,985.4
2022-10-30T01:55:00.178Z,985.6
2022-10-30T02:00:00.088Z,985.8
2022-10-30T02:05:00.104Z,985.8
2022-10-30T02:10:00.129Z,985.8
2022-10-30T02:15:00.140Z,986.2
2022-10-30T02:20:00.124Z,986.4
2022-10-30T02:25:00.129Z,986.2
2022-10-30T02:30:00.131Z,986.2
2022-10-30T02:35:00.185Z,986.4
2022-10-30T02:40:00.142Z,986.4
2022-10-30T02:45:00.131Z,986.2
2022-10-30T02:50:00.149Z,986.2
2022-10-30T02:55:00.140Z,986.2
2022-10-30T03:00:00.180Z,986.2
2022-10-30T03:05:00.752Z,986.2
2022-10-30T03:10:00.752Z,986.4
2022-10-30T03:15:00.760Z,986.2
2022-10-30T03:20:00.758Z,986.4
2022-10-30T03:25:00.767Z,986.9
2022-10-30T03:30:00.766Z,987.1
2022-10-30T03:35:00.778Z,987.1
2022-10-30T03:40:00.780Z,987.1
2022-10-30T03:45:00.823Z,986.9
2022-10-30T03:50:00.784Z,987.1
2022-10-30T03:55:00.815Z,987.1
2022-10-30T04:00:00.794Z,987.1
2022-10-30T04:05:00.804Z,987.1
2022-10-30T04:10:00.826Z,987.1
2022-10-30T04:15:00.809Z,987.1
2022-10-30T04:20:00.820Z,987.3
2022-10-30T04:25:00.817Z,987.5
2022-10-30T04:30:00.827Z,987.5
2022-10-30T04:35:00.851Z,987.5
2022-10-30T04:40:00.838Z,987.5
2022-10-30T04:45:04.319Z,987.5
2022-10-30T04:50:00.847Z,987.5
2022-10-30T04:55:00.848Z,987.3
2022-10-30T05:00:00.891Z,987.5
2022-10-30T05:05:00.861Z,988
2022-10-30T05:10:00.866Z,988
2022-10-30T05:15:00.880Z,988
2022-10-30T05:20:00.873Z,987.7
2022-10-30T05:25:00.882Z,988
2022-10-30T05:30:00.889Z,988
2022-10-30T05:35:00.890Z,988
2022-10-30T05:40:00.896Z,988.2
2022-10-30T05:45:02.290Z,988.2
2022-10-30T05:50:00.924Z,988.2
2022-10-30T05:55:00.913Z,988.2
2022-10-30T06:00:00.911Z,988
2022-10-30T06:05:00.965Z,987.5
2022-10-30T06:10:00.924Z,987.7
2022-10-30T06:15:00.961Z,988
2022-10-30T06:20:00.936Z,988
2022-10-30T06:25:00.948Z,988.4
2022-10-30T06:30:00.946Z,988.2
2022-10-30T06:35:00.963Z,988
2022-10-30T06:40:00.972Z,987.7
2022-10-30T06:45:00.972Z,988
2022-10-30T06:50:00.974Z,988.2
2022-10-30T06:55:00.972Z,988.2
2022-10-30T07:00:00.982Z,988
2022-10-30T07:05:00.973Z,987.7
2022-10-30T07:10:00.987Z,987.7
2022-10-30T07:15:01.000Z,988
2022-10-30T07:20:00.999Z,988
2022-10-30T07:25:01.019Z,987.7
2022-10-30T07:30:01.017Z,987.3
2022-10-30T07:35:01.010Z,987.1
2022-10-30T07:40:01.019Z,986.7
2022-10-30T07:45:01.102Z,986.7
2022-10-30T07:50:01.030Z,985.8
2022-10-30T07:55:00.160Z,984.9
2022-10-30T08:00:03.931Z,985.4
2022-10-30T08:05:00.171Z,985.1
2022-10-30T08:10:00.191Z,984
2022-10-30T08:15:00.177Z,983.6
2022-10-30T08:20:00.184Z,982.5
2022-10-30T08:25:00.194Z,983.2
2022-10-30T08:30:00.187Z,982.7
2022-10-30T08:35:00.197Z,983
2022-10-30T08:40:00.200Z,981.4
2022-10-30T08:45:00.208Z,981.4
2022-10-30T08:50:00.224Z,981
2022-10-30T08:55:00.227Z,981
2022-10-30T09:00:00.220Z,979.7
2022-10-30T09:05:00.332Z,979.7
2022-10-30T09:10:00.248Z,978.8
2022-10-30T09:15:00.234Z,980.1
2022-10-30T09:20:00.232Z,979.7
2022-10-30T09:25:00.285Z,979.3
2022-10-30T09:30:00.268Z,978.4
2022-10-30T09:35:00.257Z,978.8
2022-10-30T09:40:00.261Z,979.7
2022-10-30T09:45:23.090Z,979.3
2022-10-30T09:50:00.269Z,978.4
2022-10-30T09:55:00.274Z,978.8
2022-10-30T10:00:00.283Z,978.8
2022-10-30T10:05:00.305Z,977.7
2022-10-30T10:10:00.420Z,978
2022-10-30T10:15:00.320Z,978
2022-10-30T10:20:00.335Z,977.1
2022-10-30T10:25:00.311Z,975.8
2022-10-30T10:30:00.311Z,973.2
2022-10-30T10:35:00.323Z,973.2
2022-10-30T10:40:00.328Z,972.3
2022-10-30T10:45:00.334Z,971.9
2022-10-30T10:50:00.326Z,972.1
2022-10-30T10:55:00.340Z,971.7
2022-10-30T11:00:00.349Z,969.3
2022-10-30T11:05:00.347Z,969
2022-10-30T11:10:00.352Z,968.4
2022-10-30T11:15:00.356Z,968.8
2022-10-30T11:20:00.360Z,968.4
2022-10-30T11:25:00.372Z,969.7
2022-10-30T11:30:00.375Z,970.1
2022-10-30T11:35:00.383Z,969.7
2022-10-30T11:40:00.392Z,970.6
2022-10-30T11:45:00.395Z,970.1
2022-10-30T11:50:00.396Z,970.1
2022-10-30T11:55:00.398Z,970.6
2022-10-30T12:00:04.879Z,970.1
2022-10-30T12:05:00.416Z,969.7
2022-10-30T12:10:00.416Z,969.7
2022-10-30T12:15:00.420Z,969.5
2022-10-30T12:20:00.448Z,969.7
2022-10-30T12:25:00.427Z,968.8
2022-10-30T12:30:10.488Z,968.4
2022-10-30T12:35:00.455Z,969
2022-10-30T12:40:00.441Z,966.9
2022-10-30T12:45:00.450Z,968
2022-10-30T12:50:00.529Z,968
2022-10-30T12:55:00.464Z,967.3
2022-10-30T13:00:00.478Z,967.5
2022-10-30T13:05:00.479Z,967.5
2022-10-30T13:10:00.485Z,967.3
2022-10-30T13:15:00.475Z,966.9
2022-10-30T13:20:00.486Z,968.6
2022-10-30T13:25:03.749Z,968
2022-10-30T13:30:00.496Z,968.4
2022-10-30T13:35:00.498Z,968.8
2022-10-30T13:40:00.523Z,969.3
2022-10-30T13:45:00.517Z,970.1
2022-10-30T13:50:00.427Z,969.5
2022-10-30T13:55:00.283Z,968.6
2022-10-30T14:00:00.161Z,969.3
2022-10-30T14:05:00.161Z,968.8
2022-10-30T14:10:00.154Z,968.8
2022-10-30T14:15:00.287Z,969.3
2022-10-30T14:20:00.212Z,970.1
2022-10-30T14:25:00.262Z,969.7
2022-10-30T14:30:00.132Z,970.6
2022-10-30T14:35:00.170Z,970.4
2022-10-30T14:40:00.160Z,971
2022-10-30T14:45:00.165Z,971.2
2022-10-30T14:50:00.145Z,971.4
2022-10-30T14:55:00.158Z,971.9
2022-10-30T15:00:00.181Z,971.9
2022-10-30T15:05:03.929Z,972.3
2022-10-30T15:10:00.162Z,972.7
2022-10-30T15:15:00.167Z,973.2
2022-10-30T15:20:00.198Z,973.6
2022-10-30T15:25:00.175Z,973.6
2022-10-30T15:30:00.202Z,973.8
2022-10-30T15:35:00.227Z,973.8
2022-10-30T15:40:00.948Z,974.7
2022-10-30T15:45:00.204Z,975.4
2022-10-30T15:50:00.220Z,975.4
2022-10-30T15:55:00.214Z,976.2
2022-10-30T16:00:00.219Z,976.2
2022-10-30T16:05:00.216Z,976.2
2022-10-30T16:10:00.234Z,977.1
2022-10-30T16:15:00.248Z,976.7
2022-10-30T16:20:00.271Z,977.1
2022-10-30T16:25:00.255Z,978
2022-10-30T16:30:00.250Z,978
2022-10-30T16:35:00.269Z,978.4
2022-10-30T16:40:00.263Z,978.4
2022-10-30T16:45:00.267Z,979
2022-10-30T16:50:00.280Z,979
2022-10-30T16:55:00.281Z,979.9
2022-10-30T17:00:00.285Z,980.1
2022-10-30T17:05:00.292Z,981
2022-10-30T17:10:00.306Z,981.4
2022-10-30T17:15:00.303Z,981.9
2022-10-30T17:20:00.403Z,981.9
2022-10-30T17:25:00.306Z,981.4
2022-10-30T17:30:00.334Z,981.4
2022-10-30T17:35:00.874Z,981.9
2022-10-30T17:40:00.324Z,981.4
2022-10-30T17:45:00.325Z,982.1
2022-10-30T17:50:00.328Z,982.7
2022-10-30T17:55:00.343Z,983
2022-10-30T18:00:00.341Z,983.2
2022-10-30T18:05:00.350Z,983.6
2022-10-30T18:10:00.346Z,983.8
2022-10-30T18:15:00.353Z,984
2022-10-30T18:20:00.373Z,983.4
2022-10-30T18:25:00.363Z,984
2022-10-30T18:30:00.458Z,984
2022-10-30T18:35:00.388Z,984.5
2022-10-30T18:40:00.531Z,984.5
2022-10-30T18:45:00.383Z,984
2022-10-30T18:50:00.477Z,984.7
2022-10-30T18:55:00.399Z,985.6
2022-10-30T19:00:00.570Z,985.1
2022-10-30T19:05:00.407Z,984.7
2022-10-30T19:10:00.407Z,984.9
2022-10-30T19:15:00.427Z,984.9
2022-10-30T19:20:00.435Z,984.9
2022-10-30T19:25:00.431Z,985.4
2022-10-30T19:30:00.455Z,985.6
2022-10-30T19:35:00.434Z,985.8
2022-10-30T19:40:00.446Z,985.8
2022-10-30T19:45:00.454Z,985.8
2022-10-30T19:50:00.366Z,986.2
2022-10-30T19:55:00.230Z,986.2
2022-10-30T20:00:00.133Z,986.2
2022-10-30T20:05:00.105Z,986
2022-10-30T20:10:00.102Z,986.2
2022-10-30T20:15:00.111Z,986
2022-10-30T20:20:00.132Z,985.8
2022-10-30T20:25:00.144Z,986.2
2022-10-30T20:30:00.152Z,986.2
2022-10-30T20:35:00.137Z,986
2022-10-30T20:40:00.156Z,985.8
2022-10-30T20:45:00.148Z,985.8
2022-10-30T20:50:00.196Z,985.4
2022-10-30T20:55:00.249Z,984.9
2022-10-30T21:00:00.208Z,984.9
2022-10-30T21:05:11.536Z,984.5
2022-10-30T21:10:00.193Z,984.7
2022-10-30T21:15:00.181Z,984.5
2022-10-30T21:20:00.259Z,984.5
2022-10-30T21:25:00.186Z,984.7
2022-10-30T21:30:00.181Z,984.3
2022-10-30T21:35:00.202Z,984
2022-10-30T21:55:00.173Z,984.9
2022-10-30T22:00:03.521Z,984.9
2022-10-30T22:05:00.167Z,984.7
2022-10-30T22:10:00.184Z,984.7
2022-10-30T22:15:00.183Z,984.9
2022-10-30T22:20:00.202Z,985.1
2022-10-30T22:25:00.190Z,985.1
2022-10-30T22:30:00.186Z,985.1
2022-10-30T22:35:00.190Z,984.9
2022-10-30T22:40:00.211Z,985.4
2022-10-30T22:45:00.205Z,985.4
2022-10-30T22:50:00.225Z,985.6
2022-10-30T22:55:00.213Z,985.4
2022-10-30T23:00:00.211Z,985.8
2022-10-30T23:05:00.241Z,986.2
2022-10-30T23:10:00.229Z,986.2
2022-10-30T23:15:00.227Z,986.4
2022-10-30T23:20:00.232Z,986.2
2022-10-30T23:25:00.245Z,986.2
2022-10-30T23:30:00.246Z,986.7
2022-10-30T23:35:00.252Z,986.7
2022-10-30T23:40:00.272Z,986.9
2022-10-30T23:45:00.271Z,986.9
2022-10-30T23:50:00.275Z,987.1
2022-10-30T23:55:00.272Z,987.1
